METAR AND TAF INFORMATION
METAR FOR TNCB
ADDS - METARS form results

(1555 UTC 26 April 2019)
Data provider http://aviationweather.gov/metar/data/
 
Forecast for: TNCB (BONAIRE/FLAMINGO, AN)
Text: TAF TNCB 261036Z 2612/2718 08014KT 9999 SCT020
Forecast period: 1200 UTC 26 April 2019 to 1800 UTC 27 April 2019
Forecast type: FROM: standard forecast or significant change
Winds: from the E (80 degrees) at 16 MPH (14 knots; 7.2 m/s)
Visibility: 6 or more miles 10+ km)
Ceiling: at least 12,000 feet AGL
Clouds: scattered clouds at 2000 feet AGL
Weather: no significant weather forecast for this period

 AIRPORT MAP

 RUNWAY INFORMATION
Runway 10 Runway length 9449 ft Runway width 148 ft
Runway elevation 14 ft Runway displaced threshold 0 ft Runway heading 92
Runway 28 Runway length 9449 ft Runway width 148 ft
Runway elevation 20 ft Runway displaced threshold 0 ft Runway heading 272

 AIRPORT FREQUENCIES
Type TWR Name TWR Frequency 118.7 MHZ

 AIRPORT NEAR NAVIGATION AIDS
Type NDB Name Bonaire Frequency 321 KHZ



Powered by Virtual Airlines Manager [v2.6.2]